createdAt,value
2018-12-05T00:01:09.642Z,5.37
2018-12-05T00:03:39.717Z,5.30
2018-12-05T00:06:09.047Z,5.57
2018-12-05T00:08:38.526Z,5.43
2018-12-05T00:11:08.342Z,6.43
2018-12-05T00:13:38.385Z,5.87
2018-12-05T00:16:07.766Z,4.30
2018-12-05T00:18:37.882Z,4.03
2018-12-05T00:21:08.227Z,5.03
2018-12-05T00:23:38.374Z,4.87
2018-12-05T00:26:07.575Z,4.50
2018-12-05T00:28:36.924Z,5.17
2018-12-05T00:31:06.329Z,5.17
2018-12-05T00:33:36.216Z,5.13
2018-12-05T00:36:05.543Z,6.07
2018-12-05T00:38:34.810Z,5.33
2018-12-05T00:41:07.169Z,5.40
2018-12-05T00:43:36.619Z,4.97
2018-12-05T00:46:06.409Z,4.77
2018-12-05T00:48:35.821Z,5.20
2018-12-05T00:51:05.700Z,4.85
2018-12-05T00:53:35.142Z,6.13
2018-12-05T00:56:04.632Z,5.45
2018-12-05T00:58:34.317Z,5.20
2018-12-05T01:01:05.692Z,4.83
2018-12-05T01:03:35.690Z,4.77
2018-12-05T01:06:05.860Z,5.27
2018-12-05T01:08:36.067Z,4.83
2018-12-05T01:11:05.490Z,4.60
2018-12-05T01:13:35.743Z,5.17
2018-12-05T01:16:05.592Z,4.67
2018-12-05T01:18:36.120Z,4.77
2018-12-05T01:21:06.041Z,5.20
2018-12-05T01:23:35.294Z,4.85
2018-12-05T01:26:04.684Z,5.20
2018-12-05T01:28:34.491Z,4.53
2018-12-05T01:31:03.919Z,5.12
2018-12-05T01:33:34.157Z,5.00
2018-12-05T01:36:04.472Z,4.30
2018-12-05T01:38:33.947Z,5.70
2018-12-05T01:41:03.910Z,4.47
2018-12-05T01:43:39.303Z,5.23
2018-12-05T01:46:08.642Z,5.40
2018-12-05T01:48:38.781Z,4.90
2018-12-05T01:51:08.405Z,5.10
2018-12-05T01:53:38.572Z,4.93
2018-12-05T01:56:07.880Z,5.30
2018-12-05T01:58:37.287Z,5.27
2018-12-05T02:01:07.225Z,5.67
2018-12-05T02:03:37.394Z,5.20
2018-12-05T02:06:06.790Z,5.37
2018-12-05T02:08:36.034Z,5.58
2018-12-05T02:11:05.329Z,5.50
2018-12-05T02:13:34.570Z,5.40
2018-12-05T02:16:05.495Z,5.30
2018-12-05T02:18:35.798Z,5.27
2018-12-05T02:21:05.077Z,5.50
2018-12-05T02:23:34.418Z,4.60
2018-12-05T02:26:04.447Z,4.13
2018-12-05T02:28:33.692Z,5.20
2018-12-05T02:31:03.799Z,5.77
2018-12-05T02:33:33.315Z,4.80
2018-12-05T02:36:02.936Z,5.30
2018-12-05T02:38:32.524Z,4.47
2018-12-05T02:41:01.977Z,5.07
2018-12-05T02:43:32.061Z,5.60
2018-12-05T02:46:02.391Z,4.87
2018-12-05T02:48:31.677Z,6.00
2018-12-05T02:51:01.268Z,5.57
2018-12-05T02:53:30.613Z,5.10
2018-12-05T02:55:59.920Z,5.10
2018-12-05T02:58:30.043Z,5.53
2018-12-05T03:00:59.496Z,5.90
2018-12-05T03:03:29.576Z,6.12
2018-12-05T03:05:59.067Z,6.17
2018-12-05T03:08:29.042Z,6.60
2018-12-05T03:12:22.838Z,6.53
2018-12-05T03:14:52.336Z,4.67
2018-12-05T03:17:21.620Z,5.33
2018-12-05T03:19:50.867Z,5.97
2018-12-05T03:22:20.415Z,6.72
2018-12-05T03:24:49.890Z,5.13
2018-12-05T03:27:19.287Z,5.33
2018-12-05T03:29:48.555Z,6.53
2018-12-05T03:32:20.081Z,4.85
2018-12-05T03:34:50.228Z,5.30
2018-12-05T03:37:21.378Z,5.63
2018-12-05T03:39:51.287Z,4.90
2018-12-05T03:42:20.582Z,5.60
2018-12-05T03:44:49.935Z,5.07
2018-12-05T03:47:19.159Z,5.90
2018-12-05T03:49:53.956Z,5.53
2018-12-05T03:52:23.436Z,5.50
2018-12-05T03:54:53.111Z,5.17
2018-12-05T03:57:22.567Z,5.20
2018-12-05T03:59:51.928Z,5.00
2018-12-05T04:02:22.102Z,5.07
2018-12-05T04:04:52.290Z,5.50
2018-12-05T04:07:22.450Z,4.93
2018-12-05T04:09:51.720Z,5.97
2018-12-05T04:12:20.953Z,15.90
2018-12-05T04:14:51.118Z,11.27
2018-12-05T04:17:21.230Z,9.75
2018-12-05T04:19:50.527Z,7.33
2018-12-05T04:22:19.977Z,7.13
2018-12-05T04:24:49.662Z,5.57
2018-12-05T04:27:19.097Z,6.80
2018-12-05T04:29:49.067Z,5.23
2018-12-05T04:32:18.651Z,6.37
2018-12-05T04:34:48.048Z,6.70
2018-12-05T04:37:18.921Z,5.17
2018-12-05T04:39:48.249Z,4.92
2018-12-05T04:42:17.644Z,4.50
2018-12-05T04:44:47.084Z,4.70
2018-12-05T04:47:16.434Z,5.80
2018-12-05T04:49:45.712Z,5.20
2018-12-05T04:52:15.331Z,5.00
2018-12-05T04:54:45.466Z,5.27
2018-12-05T04:57:14.871Z,5.83
2018-12-05T04:59:44.127Z,7.60
2018-12-05T05:02:13.528Z,8.40
2018-12-05T05:04:43.595Z,8.43
2018-12-05T05:07:13.668Z,7.45
2018-12-05T05:09:43.074Z,7.63
2018-12-05T05:12:12.351Z,7.85
2018-12-05T05:14:41.807Z,7.93
2018-12-05T05:17:11.514Z,7.37
2018-12-05T05:19:40.714Z,7.10
2018-12-05T05:22:09.963Z,6.20
2018-12-05T05:24:39.187Z,6.50
2018-12-05T05:27:08.552Z,7.27
2018-12-05T05:29:38.093Z,7.90
2018-12-05T05:32:07.727Z,7.70
2018-12-05T05:34:37.022Z,8.77
2018-12-05T05:37:06.484Z,8.37
2018-12-05T05:39:36.572Z,7.30
2018-12-05T05:42:06.465Z,7.47
2018-12-05T05:44:35.884Z,7.60
2018-12-05T05:47:05.313Z,7.80
2018-12-05T05:49:34.847Z,8.68
2018-12-05T05:52:04.438Z,7.15
2018-12-05T05:54:34.786Z,8.40
2018-12-05T05:57:04.512Z,8.40
2018-12-05T05:59:34.028Z,8.00
2018-12-05T06:02:04.492Z,7.50
2018-12-05T06:04:33.877Z,8.17
2018-12-05T06:07:03.770Z,8.23
2018-12-05T06:09:33.067Z,7.97
2018-12-05T06:12:03.368Z,9.80
2018-12-05T06:14:33.268Z,7.20
2018-12-05T06:17:02.608Z,7.50
2018-12-05T06:19:31.825Z,6.90
2018-12-05T06:22:01.157Z,5.97
2018-12-05T06:24:30.936Z,7.23
2018-12-05T06:27:00.464Z,7.47
2018-12-05T06:29:30.006Z,7.72
2018-12-05T06:32:00.562Z,7.65
2018-12-05T06:34:30.057Z,9.50
2018-12-05T06:37:00.182Z,7.60
2018-12-05T06:39:30.595Z,8.20
2018-12-05T06:42:00.794Z,7.60
2018-12-05T06:44:30.802Z,7.10
2018-12-05T06:47:00.719Z,9.57
2018-12-05T06:49:30.338Z,9.60
2018-12-05T06:51:59.669Z,8.03
2018-12-05T06:54:29.661Z,8.50
2018-12-05T06:56:59.792Z,7.70
2018-12-05T06:59:29.148Z,6.90
2018-12-05T07:01:58.619Z,7.73
2018-12-05T07:04:28.306Z,7.05
2018-12-05T07:06:57.707Z,7.93
2018-12-05T07:09:26.962Z,7.33
2018-12-05T07:11:56.371Z,7.20
2018-12-05T07:14:25.737Z,8.08
2018-12-05T07:16:55.307Z,7.27
2018-12-05T07:19:24.898Z,7.77
2018-12-05T07:21:55.018Z,7.10
2018-12-05T07:24:24.389Z,8.13
2018-12-05T07:26:54.412Z,8.33
2018-12-05T07:29:24.561Z,8.20
2018-12-05T07:31:54.730Z,8.80
2018-12-05T07:34:24.162Z,7.93
2018-12-05T07:36:53.484Z,8.37
2018-12-05T07:39:23.505Z,8.50
2018-12-05T07:41:53.055Z,9.73
2018-12-05T07:44:23.354Z,8.33
2018-12-05T07:46:53.203Z,8.40
2018-12-05T07:49:22.413Z,7.67
2018-12-05T07:51:51.677Z,7.37
2018-12-05T07:54:21.664Z,7.33
2018-12-05T07:56:50.994Z,8.20
2018-12-05T07:59:20.263Z,7.30
2018-12-05T08:01:49.702Z,8.43
2018-12-05T08:04:19.179Z,7.87
2018-12-05T08:06:48.834Z,7.70
2018-12-05T08:09:18.275Z,7.37
2018-12-05T08:11:47.720Z,9.23
2018-12-05T08:14:17.243Z,9.40
2018-12-05T08:16:46.729Z,9.40
2018-12-05T08:19:16.092Z,13.43
2018-12-05T08:21:45.779Z,9.77
2018-12-05T08:24:15.282Z,8.60
2018-12-05T08:26:45.522Z,9.33
2018-12-05T08:29:15.727Z,8.23
2018-12-05T08:31:45.123Z,8.28
2018-12-05T08:34:15.183Z,8.07
2018-12-05T08:36:44.581Z,8.07
2018-12-05T08:39:14.277Z,9.40
2018-12-05T08:41:43.786Z,10.30
2018-12-05T08:44:13.212Z,8.90
2018-12-05T08:46:43.244Z,8.97
2018-12-05T08:49:12.506Z,10.37
2018-12-05T08:51:41.944Z,9.47
2018-12-05T08:54:11.851Z,8.87
2018-12-05T08:56:41.169Z,10.38
2018-12-05T08:59:10.448Z,9.43
2018-12-05T09:01:40.486Z,8.63
2018-12-05T09:04:10.342Z,8.97
2018-12-05T09:06:41.142Z,10.05
2018-12-05T09:09:10.742Z,9.10
2018-12-05T09:11:40.238Z,9.27
2018-12-05T09:14:09.608Z,9.38
2018-12-05T09:16:38.976Z,10.17
2018-12-05T09:19:08.487Z,9.90
2018-12-05T09:21:38.127Z,9.90
2018-12-05T09:24:07.507Z,9.40
2018-12-05T09:26:37.662Z,11.90
2018-12-05T09:29:07.703Z,12.20
2018-12-05T09:31:37.299Z,12.43
2018-12-05T09:34:06.854Z,12.40
2018-12-05T09:36:36.388Z,13.10
2018-12-05T09:39:08.647Z,12.13
2018-12-05T09:41:38.708Z,10.93
2018-12-05T09:44:08.784Z,11.38
2018-12-05T09:46:38.295Z,10.50
2018-12-05T09:49:07.702Z,11.00
2018-12-05T09:51:37.585Z,12.30
2018-12-05T09:54:07.199Z,15.05
2018-12-05T09:56:36.671Z,12.13
2018-12-05T09:59:06.143Z,12.10
2018-12-05T10:01:35.579Z,12.90
2018-12-05T10:04:05.612Z,11.30
2018-12-05T10:06:35.053Z,11.57
2018-12-05T10:09:07.667Z,11.50
2018-12-05T10:11:37.248Z,11.63
2018-12-05T10:14:07.101Z,10.80
2018-12-05T10:16:36.676Z,11.85
2018-12-05T10:19:06.779Z,12.40
2018-12-05T10:21:36.127Z,12.58
2018-12-05T10:24:05.409Z,12.93
2018-12-05T10:26:34.649Z,12.77
2018-12-05T10:29:04.753Z,12.07
2018-12-05T10:31:33.991Z,13.60
2018-12-05T10:34:04.202Z,12.23
2018-12-05T10:36:33.592Z,12.13
2018-12-05T10:39:05.834Z,11.10
2018-12-05T10:41:36.333Z,10.97
2018-12-05T10:44:05.863Z,12.40
2018-12-05T10:46:36.993Z,11.57
2018-12-05T10:49:08.222Z,10.98
2018-12-05T10:51:37.538Z,10.83
2018-12-05T10:54:06.809Z,10.67
2018-12-05T10:56:36.197Z,11.10
2018-12-05T10:59:05.885Z,11.20
2018-12-05T11:01:40.566Z,11.20
2018-12-05T11:04:15.322Z,12.30
2018-12-05T11:06:49.707Z,11.10
2018-12-05T11:09:24.393Z,10.90
2018-12-05T11:11:59.876Z,12.63
2018-12-05T11:14:34.271Z,11.00
2018-12-05T11:17:08.807Z,11.30
2018-12-05T11:19:43.465Z,11.83
2018-12-05T11:22:18.173Z,11.17
2018-12-05T11:24:50.006Z,11.90
2018-12-05T11:27:19.247Z,11.43
2018-12-05T11:29:48.633Z,12.10
2018-12-05T11:32:18.615Z,11.22
2018-12-05T11:34:48.773Z,12.35
2018-12-05T11:37:18.281Z,11.40
2018-12-05T11:39:47.923Z,10.43
2018-12-05T11:42:17.287Z,11.57
2018-12-05T11:44:46.798Z,11.20
2018-12-05T11:47:16.143Z,11.37
2018-12-05T11:49:46.123Z,12.00
2018-12-05T11:52:15.686Z,11.90
2018-12-05T11:54:45.446Z,11.53
2018-12-05T11:57:14.823Z,13.53
2018-12-05T11:59:44.148Z,10.90
2018-12-05T12:02:13.387Z,11.57
2018-12-05T12:04:43.346Z,11.90
2018-12-05T12:07:12.708Z,12.50
2018-12-05T12:09:43.123Z,11.97
2018-12-05T12:12:17.723Z,11.20
2018-12-05T12:14:47.099Z,12.73
2018-12-05T12:17:16.521Z,11.47
2018-12-05T12:19:46.902Z,11.47
2018-12-05T12:22:16.377Z,11.30
2018-12-05T12:24:45.889Z,11.10
2018-12-05T12:27:16.151Z,11.60
2018-12-05T12:29:45.629Z,11.97
2018-12-05T12:32:15.549Z,12.10
2018-12-05T12:34:45.086Z,11.77
2018-12-05T12:37:15.074Z,12.60
2018-12-05T12:39:44.516Z,11.40
2018-12-05T12:42:14.374Z,12.30
2018-12-05T12:44:44.656Z,12.50
2018-12-05T12:47:14.853Z,12.60
2018-12-05T12:49:44.183Z,11.33
2018-12-05T12:52:13.498Z,11.43
2018-12-05T12:54:43.122Z,11.80
2018-12-05T12:57:12.653Z,11.33
2018-12-05T12:59:41.963Z,12.10
2018-12-05T13:02:11.322Z,12.20
2018-12-05T13:04:40.698Z,12.57
2018-12-05T13:07:10.624Z,11.50
2018-12-05T13:09:39.951Z,11.13
2018-12-05T13:12:12.067Z,11.77
2018-12-05T13:14:42.112Z,11.80
2018-12-05T13:17:11.752Z,11.73
2018-12-05T13:19:41.578Z,11.77
2018-12-05T13:22:10.913Z,12.47
2018-12-05T13:24:40.482Z,12.13
2018-12-05T13:27:10.230Z,10.70
2018-12-05T13:29:39.500Z,11.80
2018-12-05T13:32:08.808Z,12.70
2018-12-05T13:34:38.443Z,12.25
2018-12-05T13:37:08.149Z,11.60
2018-12-05T13:39:37.450Z,13.43
2018-12-05T13:42:07.593Z,14.40
2018-12-05T13:44:36.848Z,14.40
2018-12-05T13:47:06.448Z,14.37
2018-12-05T13:49:36.105Z,13.60
2018-12-05T13:52:06.318Z,12.83
2018-12-05T13:54:35.734Z,13.80
2018-12-05T13:57:05.310Z,14.38
2018-12-05T13:59:34.703Z,13.73
2018-12-05T14:02:04.234Z,14.15
2018-12-05T14:04:34.399Z,13.17
2018-12-05T14:07:04.643Z,13.40
2018-12-05T14:09:33.998Z,14.87
2018-12-05T14:12:03.855Z,13.37
2018-12-05T14:14:33.278Z,12.10
2018-12-05T14:17:02.715Z,14.10
2018-12-05T14:19:32.704Z,13.93
2018-12-05T14:22:02.084Z,12.40
2018-12-05T14:24:31.636Z,12.23
2018-12-05T14:27:01.974Z,12.47
2018-12-05T14:29:31.443Z,11.70
2018-12-05T14:32:00.854Z,12.07
2018-12-05T14:34:30.916Z,12.20
2018-12-05T14:37:00.454Z,12.87
2018-12-05T14:39:29.986Z,12.90
2018-12-05T14:41:59.572Z,12.35
2018-12-05T14:44:28.944Z,12.97
2018-12-05T14:46:58.598Z,12.20
2018-12-05T14:49:28.150Z,11.97
2018-12-05T14:51:57.584Z,11.50
2018-12-05T14:54:26.961Z,10.63
2018-12-05T14:56:56.929Z,12.30
2018-12-05T14:59:27.021Z,11.33
2018-12-05T15:01:56.491Z,11.87
2018-12-05T15:04:27.403Z,10.80
2018-12-05T15:06:57.675Z,10.67
2018-12-05T15:09:27.944Z,9.50
2018-12-05T15:11:58.100Z,9.00
2018-12-05T15:14:27.335Z,9.48
2018-12-05T15:16:57.424Z,9.43
2018-12-05T15:19:27.932Z,9.93
2018-12-05T15:21:57.324Z,9.80
2018-12-05T15:24:26.972Z,9.90
2018-12-05T15:26:57.342Z,9.47
2018-12-05T15:29:27.626Z,9.28
2018-12-05T15:31:58.118Z,8.00
2018-12-05T15:34:27.815Z,7.00
2018-12-05T15:36:58.141Z,7.10
2018-12-05T15:39:27.545Z,6.90
2018-12-05T15:41:57.682Z,5.90
2018-12-05T15:44:27.500Z,8.15
2018-12-05T15:46:57.871Z,6.40
2018-12-05T15:49:27.292Z,6.50
2018-12-05T15:51:57.460Z,6.30
2018-12-05T15:54:27.466Z,5.00
2018-12-05T15:56:56.859Z,6.30
2018-12-05T15:59:26.517Z,5.80
2018-12-05T16:01:56.131Z,6.63
2018-12-05T16:04:25.687Z,5.80
2018-12-05T16:06:55.702Z,6.30
2018-12-05T16:09:25.516Z,5.67
2018-12-05T16:11:55.990Z,6.10
2018-12-05T16:14:25.242Z,7.93
2018-12-05T16:16:55.306Z,11.37
2018-12-05T16:19:24.811Z,6.43
2018-12-05T16:21:54.879Z,5.62
2018-12-05T16:24:24.315Z,5.53
2018-12-05T16:26:54.103Z,5.97
2018-12-05T16:29:24.412Z,6.23
2018-12-05T16:31:53.899Z,7.40
2018-12-05T16:34:23.827Z,6.17
2018-12-05T16:36:53.910Z,6.40
2018-12-05T16:39:23.482Z,8.40
2018-12-05T16:41:53.353Z,6.73
2018-12-05T16:44:23.553Z,6.80
2018-12-05T16:46:53.095Z,7.25
2018-12-05T16:49:22.365Z,6.10
2018-12-05T16:51:52.211Z,6.83
2018-12-05T16:54:22.398Z,6.27
2018-12-05T16:56:52.764Z,5.60
2018-12-05T16:59:22.162Z,6.90
2018-12-05T17:01:51.736Z,6.73
2018-12-05T17:04:21.321Z,6.77
2018-12-05T17:06:50.756Z,6.20
2018-12-05T17:09:26.118Z,5.80
2018-12-05T17:11:52.030Z,6.03
2018-12-05T17:14:22.088Z,5.97
2018-12-05T17:16:51.769Z,6.60
2018-12-05T17:19:22.636Z,6.47
2018-12-05T17:21:52.020Z,6.63
2018-12-05T17:24:21.960Z,6.63
2018-12-05T17:26:51.431Z,6.10
2018-12-05T17:29:21.060Z,5.57
2018-12-05T17:31:50.501Z,6.47
2018-12-05T17:34:20.037Z,6.33
2018-12-05T17:36:50.071Z,5.83
2018-12-05T17:39:20.108Z,5.65
2018-12-05T17:41:49.540Z,7.70
2018-12-05T17:44:19.521Z,6.87
2018-12-05T17:46:49.098Z,6.80
2018-12-05T17:49:18.801Z,16.93
2018-12-05T17:51:48.256Z,14.40
2018-12-05T17:54:17.715Z,9.00
2018-12-05T17:56:47.011Z,7.50
2018-12-05T17:59:16.882Z,6.83
2018-12-05T18:01:46.362Z,11.10
2018-12-05T18:04:15.962Z,8.20
2018-12-05T18:06:45.587Z,8.28
2018-12-05T18:09:15.078Z,8.50
2018-12-05T18:11:44.616Z,9.78
2018-12-05T18:14:14.190Z,11.00
2018-12-05T18:16:43.692Z,7.97
2018-12-05T18:19:13.518Z,9.57
2018-12-05T18:21:42.938Z,8.37
2018-12-05T18:24:12.570Z,9.27
2018-12-05T18:26:42.192Z,9.50
2018-12-05T18:29:12.318Z,10.27
2018-12-05T18:31:41.731Z,11.17
2018-12-05T18:34:11.281Z,10.13
2018-12-05T18:36:41.003Z,10.83
2018-12-05T18:39:10.379Z,11.43
2018-12-05T18:41:40.507Z,12.50
2018-12-05T18:44:10.648Z,11.73
2018-12-05T18:46:40.271Z,12.80
2018-12-05T18:49:09.779Z,10.57
2018-12-05T18:51:39.387Z,9.53
2018-12-05T18:54:09.596Z,11.07
2018-12-05T18:56:39.443Z,9.50
2018-12-05T18:59:09.052Z,9.83
2018-12-05T19:01:39.176Z,9.87
2018-12-05T19:04:08.658Z,9.57
2018-12-05T19:06:38.598Z,9.70
2018-12-05T19:09:08.947Z,10.50
2018-12-05T19:11:40.453Z,10.50
2018-12-05T19:14:15.870Z,10.20
2018-12-05T19:16:45.303Z,11.07
2018-12-05T19:19:14.800Z,11.20
2018-12-05T19:21:44.613Z,12.00
2018-12-05T19:24:14.200Z,12.90
2018-12-05T19:26:44.025Z,12.80
2018-12-05T19:29:13.415Z,11.83
2018-12-05T19:31:43.253Z,11.27
2018-12-05T19:34:12.745Z,10.10
2018-12-05T19:36:42.172Z,11.60
2018-12-05T19:39:11.773Z,10.70
2018-12-05T19:41:41.313Z,10.13
2018-12-05T19:44:11.622Z,10.37
2018-12-05T19:46:41.126Z,11.48
2018-12-05T19:49:10.835Z,10.40
2018-12-05T19:51:41.290Z,9.80
2018-12-05T19:54:11.207Z,10.23
2018-12-05T19:56:40.925Z,12.80
2018-12-05T19:59:10.451Z,11.50
2018-12-05T20:01:39.986Z,12.05
2018-12-05T20:04:10.193Z,10.77
2018-12-05T20:06:39.623Z,11.33
2018-12-05T20:09:10.787Z,11.53
2018-12-05T20:11:40.451Z,14.90
2018-12-05T20:14:12.378Z,16.57
2018-12-05T20:16:42.216Z,12.10
2018-12-05T20:19:11.601Z,12.20
2018-12-05T20:21:41.402Z,10.80
2018-12-05T20:24:11.110Z,14.10
2018-12-05T20:26:41.775Z,15.75
2018-12-05T20:29:11.523Z,15.97
2018-12-05T20:31:41.751Z,14.40
2018-12-05T20:34:11.312Z,11.93
2018-12-05T20:36:40.940Z,13.13
2018-12-05T20:39:11.428Z,11.70
2018-12-05T20:41:41.183Z,12.50
2018-12-05T20:44:10.722Z,11.37
2018-12-05T20:46:40.271Z,11.77
2018-12-05T20:49:09.998Z,12.80
2018-12-05T20:51:40.122Z,11.40
2018-12-05T20:54:10.438Z,11.40
2018-12-05T20:56:40.897Z,11.87
2018-12-05T20:59:10.637Z,10.40
2018-12-05T21:01:40.398Z,11.07
2018-12-05T21:04:10.033Z,12.90
2018-12-05T21:06:40.269Z,12.60
2018-12-05T21:09:10.393Z,13.83
2018-12-05T21:11:39.954Z,13.72
2018-12-05T21:14:10.108Z,13.27
2018-12-05T21:16:39.568Z,15.93
2018-12-05T21:19:09.129Z,13.90
2018-12-05T21:21:38.533Z,14.80
2018-12-05T21:24:08.332Z,14.00
2018-12-05T21:26:38.190Z,13.63
2018-12-05T21:29:07.707Z,11.23
2018-12-05T21:31:37.165Z,10.90
2018-12-05T21:34:06.628Z,12.60
2018-12-05T21:36:36.748Z,11.40
2018-12-05T21:39:08.794Z,13.50
2018-12-05T21:41:38.354Z,12.53
2018-12-05T21:44:08.328Z,12.20
2018-12-05T21:46:38.662Z,12.73
2018-12-05T21:49:08.013Z,12.33
2018-12-05T21:51:37.416Z,13.40
2018-12-05T21:54:07.177Z,12.37
2018-12-05T21:56:36.682Z,11.77
2018-12-05T21:59:07.066Z,11.53
2018-12-05T22:01:36.830Z,11.77
2018-12-05T22:04:06.579Z,12.53
2018-12-05T22:06:36.170Z,10.23
2018-12-05T22:09:10.367Z,10.97
2018-12-05T22:11:39.847Z,11.50
2018-12-05T22:14:09.871Z,11.97
2018-12-05T22:16:39.533Z,12.60
2018-12-05T22:19:09.090Z,11.97
2018-12-05T22:21:38.489Z,11.23
2018-12-05T22:24:07.752Z,10.93
2018-12-05T22:26:37.741Z,12.25
2018-12-05T22:29:07.172Z,12.93
2018-12-05T22:31:36.492Z,11.77
2018-12-05T22:34:06.051Z,13.20
2018-12-05T22:36:35.709Z,12.40
2018-12-05T22:39:07.919Z,13.70
2018-12-05T22:41:37.344Z,12.63
2018-12-05T22:44:07.250Z,11.20
2018-12-05T22:46:36.767Z,12.23
2018-12-05T22:49:06.316Z,12.03
2018-12-05T22:51:35.991Z,12.57
2018-12-05T22:54:05.599Z,13.97
2018-12-05T22:56:35.350Z,14.43
2018-12-05T22:59:05.412Z,13.27
2018-12-05T23:01:36.557Z,12.33
2018-12-05T23:04:06.857Z,12.00
2018-12-05T23:06:36.252Z,11.40
2018-12-05T23:09:06.812Z,12.37
2018-12-05T23:11:38.428Z,10.93
2018-12-05T23:14:07.840Z,12.30
2018-12-05T23:16:37.783Z,12.17
2018-12-05T23:19:07.217Z,11.67
2018-12-05T23:21:36.738Z,11.90
2018-12-05T23:24:06.134Z,11.28
2018-12-05T23:26:36.721Z,12.90
2018-12-05T23:29:06.115Z,12.05
2018-12-05T23:31:35.603Z,11.23
2018-12-05T23:34:05.230Z,12.40
2018-12-05T23:36:35.478Z,11.20
2018-12-05T23:39:08.101Z,11.30
2018-12-05T23:41:37.827Z,12.13
2018-12-05T23:44:07.179Z,12.73
2018-12-05T23:46:36.467Z,13.40
2018-12-05T23:49:06.058Z,11.00
2018-12-05T23:51:35.938Z,11.68
2018-12-05T23:54:06.043Z,11.57
2018-12-05T23:56:35.573Z,12.40
2018-12-05T23:59:05.222Z,11.27
